Gorch Fock — DRAX — position and weather

sailwx.info

Track history (hours):
 
Tides and Currents Weather Stations Pressure Air Temp Water Temp Dewpoint Dewpoint Depression Visibility Wind Speed Wind Dir Waves Ship Positions

Gorch Fock (Germany)

Ship's website: http://www.marine.de/01DB070000000001/CurrentBaseLink/W2698K4S188INFODE

Last reported at 2015-May-06 16:33 UTC. Time now 2015-May-06 17:31 UTC.
Position N 53°55' E 007°42'.

Length 89 m; draft 5.4 m.

Type: Sailing vessel. MMSI: 211210280.

Date/timePositionNaut miles runAvg speedWind from/ knotsBaromVisibWave heightAir tempDewpointWater temp
2015-May-06 16:33N 53°55' E 007°42'6 6.5
2015-May-06 15:33N 53°55' E 007°31'4 4.1
2015-May-06 14:33N 53°53' E 007°24'5 5.0
2015-May-06 13:33N 53°52' E 007°16'7 7.1
2015-May-06 12:33N 53°51' E 007°04'21 6.9
2015-May-06 09:31N 53°47' E 006°29'7 5.4
2015-May-06 08:08N 53°51' E 006°19'3 5.3
2015-May-06 07:33N 53°52' E 006°14'6 5.7
2015-May-06 06:33N 53°53' E 006°04'5 4.6
2015-May-06 05:33N 53°54' E 005°57'6 5.6
2015-May-06 04:33N 53°55' E 005°47'5 5.5
2015-May-06 03:33N 53°56' E 005°38'6 5.6
2015-May-06 02:33N 53°57' E 005°29'6 5.9
2015-May-06 01:33N 53°59' E 005°19'6 5.7
2015-May-06 00:33N 54°00' E 005°10'6 6.4
2015-May-05 23:33N 54°02' E 004°59'6 6.1
2015-May-05 22:33N 54°03' E 004°49'6 6.1
2015-May-05 21:33N 54°05' E 004°39'131 5.9
2015-May-04 23:33N 54°10' E 000°56'6 5.5
2015-May-04 22:33N 54°10' E 000°47'5 5.1
2015-May-04 21:33N 54°10' E 000°38'3 3.3
2015-May-04 20:33N 54°12' E 000°35'4 3.9
2015-May-04 19:33N 54°16' E 000°31'4 4.4
2015-May-04 18:33N 54°20' E 000°28'5 4.7
2015-May-04 17:33N 54°24' E 000°24'5 5.0
2015-May-04 16:33N 54°28' E 000°20'5 4.9
2015-May-04 15:33N 54°33' E 000°17'5 5.2
2015-May-04 14:33N 54°37' E 000°12'5 5.4
2015-May-04 13:33N 54°42' E 000°07'5 5.2
2015-May-04 12:33N 54°46' E 000°02'5 4.7
2015-May-04 11:33N 54°51' E 000°01'4 4.4
2015-May-04 10:33N 54°55' W 000°03'7 6.3
2015-May-04 09:27N 55°01' W 000°08'6 6.6
2015-May-04 08:33N 55°06' W 000°13'6 6.3
2015-May-04 07:33N 55°12' W 000°17'7 6.7
2015-May-04 06:30N 55°18' W 000°23'  
2015-Apr-26 23:24N 57°06' W 001°30'8 8.8
2015-Apr-26 22:33N 57°13' W 001°25'10 9.7
2015-Apr-26 21:33N 57°22' W 001°21'7 7.2
2015-Apr-26 20:33N 57°29' W 001°17'10 9.8
2015-Apr-26 19:33N 57°39' W 001°13'9 9.2
2015-Apr-26 18:33N 57°48' W 001°10'  
Track history (hours):
 
Tides and Currents Weather Stations Pressure Air Temp Water Temp Dewpoint Dewpoint Depression Visibility Wind Speed Wind Dir Waves Ship Positions

Gorch Fock (Germany)

Ship's website: http://www.marine.de/01DB070000000001/CurrentBaseLink/W2698K4S188INFODE

Last reported at 2015-May-06 16:33 UTC. Time now 2015-May-06 17:31 UTC.
Position N 53°55' E 007°42'.

Length 89 m; draft 5.4 m.

Type: Sailing vessel. MMSI: 211210280.

Date/timePositionNaut miles runAvg speedWind from/ knotsBaromVisibWave heightAir tempDewpointWater temp
2015-May-06 16:33N 53°55' E 007°42'6 6.5
2015-May-06 15:33N 53°55' E 007°31'4 4.1
2015-May-06 14:33N 53°53' E 007°24'5 5.0
2015-May-06 13:33N 53°52' E 007°16'7 7.1
2015-May-06 12:33N 53°51' E 007°04'21 6.9
2015-May-06 09:31N 53°47' E 006°29'7 5.4
2015-May-06 08:08N 53°51' E 006°19'3 5.3
2015-May-06 07:33N 53°52' E 006°14'6 5.7
2015-May-06 06:33N 53°53' E 006°04'5 4.6
2015-May-06 05:33N 53°54' E 005°57'6 5.6
2015-May-06 04:33N 53°55' E 005°47'5 5.5
2015-May-06 03:33N 53°56' E 005°38'6 5.6
2015-May-06 02:33N 53°57' E 005°29'6 5.9
2015-May-06 01:33N 53°59' E 005°19'6 5.7
2015-May-06 00:33N 54°00' E 005°10'6 6.4
2015-May-05 23:33N 54°02' E 004°59'6 6.1
2015-May-05 22:33N 54°03' E 004°49'6 6.1
2015-May-05 21:33N 54°05' E 004°39'131 5.9
2015-May-04 23:33N 54°10' E 000°56'6 5.5
2015-May-04 22:33N 54°10' E 000°47'5 5.1
2015-May-04 21:33N 54°10' E 000°38'3 3.3
2015-May-04 20:33N 54°12' E 000°35'4 3.9
2015-May-04 19:33N 54°16' E 000°31'4 4.4
2015-May-04 18:33N 54°20' E 000°28'5 4.7
2015-May-04 17:33N 54°24' E 000°24'5 5.0
2015-May-04 16:33N 54°28' E 000°20'5 4.9
2015-May-04 15:33N 54°33' E 000°17'5 5.2
2015-May-04 14:33N 54°37' E 000°12'5 5.4
2015-May-04 13:33N 54°42' E 000°07'5 5.2
2015-May-04 12:33N 54°46' E 000°02'5 4.7
2015-May-04 11:33N 54°51' E 000°01'4 4.4
2015-May-04 10:33N 54°55' W 000°03'7 6.3
2015-May-04 09:27N 55°01' W 000°08'6 6.6
2015-May-04 08:33N 55°06' W 000°13'6 6.3
2015-May-04 07:33N 55°12' W 000°17'7 6.7
2015-May-04 06:30N 55°18' W 000°23'  
2015-Apr-26 23:24N 57°06' W 001°30'8 8.8
2015-Apr-26 22:33N 57°13' W 001°25'10 9.7
2015-Apr-26 21:33N 57°22' W 001°21'7 7.2
2015-Apr-26 20:33N 57°29' W 001°17'10 9.8
2015-Apr-26 19:33N 57°39' W 001°13'9 9.2
2015-Apr-26 18:33N 57°48' W 001°10'  

Dump ship's entire track history